Latest Weather Observations for McArthur River Mine

IDD60801

Issued at 8:31 pm CST Wednesday 29 July 2015 (issued every 30 minutes, with the page automatically refreshed every 10 minutes)

About weather observations | Map of weather stations | Latest weather observations for NT | Other Formats
Station Details ID: 014704 Name: MCARTHUR RIVER MINE AIRPORT Lat: -16.44 Lon: 136.08 Height: 40.0 m
Data from the previous 72 hours. | See also: Recent months at McArthur River Mine
Date/Time
CST
Temp
°C
App
Temp
°C
Dew
Point
Rel
Hum
%
Delta-T
°C
Wind Press
QNH
hPa
Press
MSL
hPa
Rain
since 9 am
mm
Dir
 
Spd
km/h
Gust
km/h
Spd
kts
Gust
kts
29/08:30pm 25.3 24.9 14.1 50 6.6 N 9 13 5 7 1018.8 - 0.0
29/08:00pm 26.0 25.6 14.1 47 7.1 NNE 9 13 5 7 1018.5 - 0.0
29/07:30pm 26.5 25.9 14.6 48 7.1 N 11 15 6 8 1018.1 - 0.0
29/07:00pm 27.4 26.5 14.8 46 7.6 NNE 13 20 7 11 1017.5 - 0.0
29/06:30pm 28.4 27.0 12.3 37 9.4 NE 11 22 6 12 1017.1 - 0.0
29/06:00pm 30.0 27.4 7.8 25 12.1 ESE 11 15 6 8 1016.8 1016.8 0.0
29/05:30pm 31.0 28.3 7.5 23 12.8 E 11 19 6 10 1016.7 - 0.0
29/05:00pm 31.3 28.5 7.1 22 13.2 E 11 17 6 9 1016.6 - 0.0
29/04:30pm 31.7 28.5 6.7 21 13.5 ESE 13 20 7 11 1016.6 - 0.0
29/04:00pm 31.7 28.5 6.7 21 13.5 ESE 13 22 7 12 1016.8 - 0.0
29/03:30pm 31.8 28.3 5.3 19 14.0 E 13 22 7 12 1017.0 - 0.0
29/03:00pm 31.3 28.6 5.7 20 13.6 E 9 22 5 12 1017.3 1017.3 0.0
29/02:30pm 31.6 27.7 5.2 19 13.9 E 15 24 8 13 1017.7 - 0.0
29/02:00pm 31.5 28.1 5.8 20 13.7 SE 13 32 7 17 1018.1 - 0.0
29/01:30pm 30.1 27.0 5.4 21 13.0 S 11 20 6 11 1018.5 - 0.0
29/01:00pm 30.4 26.7 4.2 19 13.5 ESE 13 26 7 14 1019.2 - 0.0
29/12:30pm 30.0 25.4 3.9 19 13.3 E 17 26 9 14 1019.7 - 0.0
29/12:00pm 28.5 23.6 4.1 21 12.4 SSE 19 30 10 16 1020.2 1020.2 0.0
29/11:30am 28.3 23.9 4.6 22 12.1 SE 17 24 9 13 1020.6 - 0.0
29/11:00am 27.4 21.6 4.5 23 11.6 SSE 24 32 13 17 1020.7 - 0.0
29/10:30am 27.2 22.1 4.3 23 11.5 SE 20 30 11 16 1021.2 - 0.0
29/10:00am 25.7 20.8 1.8 21 11.4 SE 17 28 9 15 1021.4 - 0.0
29/09:30am 24.2 19.0 -0.2 20 11.1 SE 17 24 9 13 1021.2 - 0.0
29/09:00am 22.7 16.8 -0.7 21 10.4 SSE 20 26 11 14 1021.2 1021.2 0.0
29/08:30am 20.3 16.3 0.2 26 8.9 SSW 11 15 6 8 1020.9 - 0.0
29/08:00am 18.3 13.9 0.4 30 7.9 WSW 13 15 7 8 1020.8 - 0.0
29/07:30am 16.1 12.9 1.0 36 6.6 WSW 7 11 4 6 1020.5 - 0.0
29/07:00am 15.0 12.1 1.2 39 6.0 W 6 9 3 5 1020.1 - 0.0
29/06:30am 15.5 12.4 1.3 38 6.2 WSW 7 9 4 5 1019.8 - 0.0
29/06:00am 15.5 12.1 1.6 39 6.1 WSW 9 11 5 6 1019.5 1019.5 0.0
29/05:30am 15.6 12.6 1.7 39 6.1 W 7 9 4 5 1019.6 - 0.0
29/05:00am 15.9 12.9 2.0 39 6.2 W 7 9 4 5 1019.5 - 0.0
29/04:43am 16.2 13.1 1.5 37 6.5 W 7 9 4 5 1019.4 - 0.0
29/04:30am 16.6 13.5 1.5 36 6.7 W 7 9 4 5 1019.4 - 0.0
29/04:23am 16.6 13.5 1.5 36 6.7 W 7 9 4 5 1019.4 - 0.0
29/04:00am 17.5 14.5 1.1 33 7.3 W 6 9 3 5 1019.4 - 0.0
29/03:30am 18.0 14.5 1.1 32 7.5 WSW 9 9 5 5 1019.5 - 0.0
29/03:00am 20.4 17.1 0.3 26 8.9 S 7 9 4 5 1019.7 1019.7 0.0
29/02:30am 21.0 17.4 0.8 26 9.2 S 9 13 5 7 1019.9 - 0.0
29/02:00am 21.4 17.9 1.1 26 9.3 S 9 13 5 7 1020.0 - 0.0
29/01:30am 21.8 18.3 1.5 26 9.4 S 9 13 5 7 1020.2 - 0.0
29/01:00am 22.3 18.5 1.9 26 9.5 S 11 19 6 10 1020.1 - 0.0
29/12:30am 22.5 18.8 2.6 27 9.4 SSE 11 17 6 9 1020.0 - 0.0
29/12:00am 22.8 18.9 3.4 28 9.3 SSE 13 17 7 9 1020.0 1020.0 0.0
 
Date/Time
CST
Temp
°C
App
Temp
°C
Dew
Point
Rel
Hum
%
Delta-T
°C
Wind Press
QNH
hPa
Press
MSL
hPa
Rain
since 9 am
mm
Dir
 
Spd
km/h
Gust
km/h
Spd
kts
Gust
kts
28/11:30pm 22.7 19.7 4.2 30 9.1 S 9 15 5 8 1020.1 - 0.0
28/11:00pm 22.8 19.8 4.3 30 9.1 S 9 13 5 7 1020.2 - 0.0
28/10:30pm 23.2 20.7 4.7 30 9.2 S 7 9 4 5 1020.2 - 0.0
28/10:00pm 23.5 20.6 4.5 29 9.4 SSE 9 11 5 6 1020.1 - 0.0
28/09:30pm 24.0 21.1 4.4 28 9.7 S 9 13 5 7 1020.2 - 0.0
28/09:00pm 24.3 21.4 4.6 28 9.8 S 9 13 5 7 1020.2 1020.2 0.0
28/08:30pm 25.1 21.8 4.8 27 10.2 S 11 13 6 7 1020.1 - 0.0
28/08:00pm 25.7 22.5 5.3 27 10.4 S 11 13 6 7 1019.8 - 0.0
28/07:30pm 25.2 22.8 5.4 28 10.1 SSE 7 13 4 7 1019.4 - 0.0
28/07:00pm 26.5 24.0 4.9 25 11.0 SSE 7 9 4 5 1018.9 - 0.0
28/06:30pm 27.4 24.5 4.5 23 11.6 ESE 9 13 5 7 1018.7 - 0.0
28/06:00pm 28.7 25.0 4.2 21 12.5 SE 13 19 7 10 1018.5 1018.5 0.0
28/05:30pm 29.6 25.7 3.5 19 13.2 SE 13 19 7 10 1018.5 - 0.0
28/05:00pm 29.8 25.4 2.9 18 13.5 SE 15 24 8 13 1018.3 - 0.0
28/04:30pm 30.4 26.4 2.6 17 13.9 ESE 13 19 7 10 1018.1 - 0.0
28/04:00pm 30.0 25.8 1.5 16 14.0 ESE 13 20 7 11 1017.9 - 0.0
28/03:30pm 30.0 25.9 2.3 17 13.8 SE 13 24 7 13 1018.0 - 0.0
28/03:00pm 30.0 24.4 1.5 16 14.0 SSE 20 26 11 14 1018.1 1018.1 0.0
28/02:30pm 29.8 24.8 1.3 16 13.9 SE 17 28 9 15 1018.5 - 0.0
28/02:00pm 29.0 23.6 1.5 17 13.4 S 19 32 10 17 1018.9 - 0.0
28/01:30pm 29.0 23.3 0.7 16 13.6 SSE 20 24 11 13 1019.3 - 0.0
28/01:00pm 27.8 21.7 0.5 17 13.0 SSE 22 33 12 18 1019.8 - 0.0
28/12:30pm 28.2 23.6 1.7 18 12.9 SE 15 22 8 12 1020.6 - 0.0
28/12:00pm 27.0 21.9 0.7 18 12.4 ESE 17 22 9 12 1021.1 1021.1 0.0
28/11:30am 25.8 20.1 0.5 19 11.8 SE 20 32 11 17 1021.7 - 0.0
28/11:00am 25.0 19.5 0.5 20 11.4 SE 19 28 10 15 1022.2 - 0.0
28/10:30am 24.1 18.5 1.1 22 10.7 ESE 20 28 11 15 1022.6 - 0.0
28/10:00am 23.0 17.0 0.8 23 10.2 SSE 22 33 12 18 1022.8 - 0.0
28/09:30am 22.2 16.5 0.7 24 9.8 SSE 20 32 11 17 1022.9 - 0.0
28/09:00am 21.3 15.8 0.5 25 9.4 SSE 19 28 10 15 1022.7 1022.6 0.0
28/08:30am 20.8 15.8 1.1 27 9.0 SSE 17 28 9 15 1022.4 - 0.0
28/08:00am 19.9 14.5 1.4 29 8.4 SSE 19 28 10 15 1021.9 - 0.0
28/07:30am 19.4 14.0 1.4 30 8.1 S 19 28 10 15 1021.8 - 0.0
28/07:00am 19.2 13.8 1.2 30 8.1 SSE 19 24 10 13 1021.6 - 0.0
28/06:30am 19.4 14.3 0.9 29 8.3 S 17 28 9 15 1021.3 - 0.0
28/06:00am 19.7 15.0 1.2 29 8.3 S 15 20 8 11 1021.1 1021.1 0.0
28/05:30am 19.8 15.5 0.8 28 8.5 S 13 19 7 10 1020.9 - 0.0
28/05:21am 19.8 15.8 0.8 28 8.5 S 11 15 6 8 1020.9 - 0.0
28/05:08am 19.9 15.6 0.9 28 8.6 S 13 20 7 11 1020.9 - 0.0
28/05:07am 20.0 15.7 1.0 28 8.6 S 13 20 7 11 1020.9 - 0.0
28/05:00am 20.0 15.7 1.0 28 8.6 S 13 20 7 11 1020.9 - 0.0
28/04:53am 20.0 15.7 1.0 28 8.6 S 13 20 7 11 1020.8 - 0.0
28/04:30am 20.0 16.0 0.5 27 8.7 S 11 17 6 9 1020.7 - 0.0
28/04:00am 20.1 15.7 0.5 27 8.8 S 13 17 7 9 1020.7 - 0.0
28/03:30am 20.3 15.2 0.7 27 8.8 SSE 17 22 9 12 1020.6 - 0.0
28/03:00am 20.6 15.8 0.4 26 9.0 S 15 24 8 13 1020.4 1020.4 0.0
28/02:30am 20.9 15.4 0.7 26 9.1 S 19 26 10 14 1020.4 - 0.0
28/02:00am 21.1 15.9 0.3 25 9.3 S 17 26 9 14 1020.5 - 0.0
28/01:30am 21.3 15.8 0.5 25 9.4 S 19 26 10 14 1020.7 - 0.0
28/01:22am 21.4 16.3 0.6 25 9.4 S 17 28 9 15 1020.8 - 0.0
28/01:04am 21.6 15.9 0.8 25 9.5 S 20 32 11 17 1020.7 - 0.0
28/01:00am 21.7 16.6 0.8 25 9.5 S 17 26 9 14 1020.7 - 0.0
28/12:30am 22.0 16.5 1.6 26 9.5 S 20 32 11 17 1020.7 - 0.0
28/12:00am 22.4 17.5 2.0 26 9.5 S 17 24 9 13 1020.8 1020.8 0.0
 
Date/Time
CST
Temp
°C
App
Temp
°C
Dew
Point
Rel
Hum
%
Delta-T
°C
Wind Press
QNH
hPa
Press
MSL
hPa
Rain
since 9 am
mm
Dir
 
Spd
km/h
Gust
km/h
Spd
kts
Gust
kts
27/11:45pm 22.7 17.8 1.7 25 9.8 S 17 26 9 14 1020.9 - 0.0
27/11:35pm 23.0 16.8 1.9 25 9.9 SSE 24 35 13 19 1020.9 - 0.0
27/11:30pm 23.1 17.2 1.4 24 10.1 SSE 22 35 12 19 1020.9 - 0.0
27/11:00pm 23.7 17.8 1.4 23 10.4 S 22 30 12 16 1020.9 - 0.0
27/10:30pm 24.7 18.8 1.6 22 10.9 S 22 32 12 17 1020.7 - 0.0
27/10:00pm 25.5 20.3 2.2 22 11.2 SSE 19 28 10 15 1020.5 - 0.0
27/09:30pm 25.9 21.2 3.2 23 11.2 S 17 24 9 13 1020.4 - 0.0
27/09:00pm 26.6 22.0 3.8 23 11.4 SSE 17 28 9 15 1020.2 1020.2 0.0
27/08:30pm 27.0 21.8 3.5 22 11.7 SSE 20 30 11 16 1020.1 - 0.0
27/08:00pm 27.3 22.1 3.7 22 11.8 S 20 28 11 15 1019.9 - 0.0
27/07:30pm 27.6 23.1 4.0 22 11.9 S 17 24 9 13 1019.5 - 0.0
27/07:00pm 28.1 23.1 3.7 21 12.3 S 19 28 10 15 1019.2 - 0.0
27/06:30pm 28.5 23.4 4.1 21 12.4 S 20 32 11 17 1018.9 - 0.0
27/06:00pm 29.4 23.0 3.4 19 13.1 S 26 35 14 19 1018.5 1018.5 0.0
27/05:30pm 30.7 25.1 3.7 18 13.8 S 22 32 12 17 1018.0 - 0.0
27/05:00pm 31.7 26.3 4.5 18 14.2 SSE 22 33 12 18 1017.7 - 0.0
27/04:30pm 32.5 27.2 5.1 18 14.5 SSE 22 41 12 22 1017.4 - 0.0
27/04:00pm 32.3 26.6 5.0 18 14.4 SSE 24 33 13 18 1017.3 - 0.0
27/03:30pm 32.3 27.2 4.2 17 14.6 SSE 20 33 11 18 1017.3 - 0.0
27/03:00pm 32.2 26.7 4.1 17 14.6 SSE 22 37 12 20 1017.5 1017.5 0.0
27/02:30pm 31.9 26.7 3.8 17 14.5 SSE 20 33 11 18 1017.8 - 0.0
27/02:00pm 31.5 25.5 3.5 17 14.4 SSE 24 32 13 17 1018.2 - 0.0
27/01:30pm 31.2 26.3 4.9 19 13.8 SSE 20 33 11 18 1018.8 - 0.0
27/01:00pm 30.5 25.6 4.3 19 13.5 SSW 19 35 10 19 1019.4 - 0.0
27/12:30pm 29.5 24.5 3.5 19 13.2 SSE 19 28 10 15 1020.1 - 0.0
27/12:00pm 28.8 23.2 3.6 20 12.7 S 22 32 12 17 1020.7 1020.7 0.0
27/11:30am 28.0 22.9 3.0 20 12.4 S 19 28 10 15 1021.2 - 0.0
27/11:00am 27.1 21.5 3.6 22 11.7 S 22 35 12 19 1021.5 - 0.0
27/10:30am 27.0 21.8 3.5 22 11.7 SSE 20 30 11 16 1021.8 - 0.0
27/10:00am 25.6 20.3 2.9 23 11.1 SE 20 28 11 15 1022.1 - 0.0
27/09:30am 24.8 19.5 2.9 24 10.6 SE 20 33 11 18 1022.3 - 0.0
27/09:00am 24.4 19.0 2.5 24 10.5 SSE 20 32 11 17 1022.3 1022.2 0.0
27/08:30am 23.9 18.5 2.7 25 10.2 SSE 20 30 11 16 1021.9 - 0.0
27/08:00am 22.7 18.7 2.8 27 9.5 SSE 13 24 7 13 1021.6 - 0.0
27/07:30am 20.0 17.6 4.5 36 7.5 S 6 9 3 5 1021.3 - 0.0
27/07:26am 19.9 17.6 4.8 37 7.3 S 6 9 3 5 1021.2 - 0.0
27/07:00am 18.6 17.1 4.8 40 6.6 SW 2 6 1 3 1020.9 - 0.0
27/06:30am 21.6 18.9 3.8 31 8.6 S 7 11 4 6 1020.3 - 0.0
27/06:00am 18.5 16.6 7.6 49 5.5 S 7 9 4 5 1019.8 1019.8 0.0
27/05:30am 19.0 17.0 7.1 46 6.0 SSW 7 9 4 5 1019.5 - 0.0
27/05:00am 20.4 17.9 6.4 40 7.0 SSW 9 11 5 6 1019.4 - 0.0
27/04:30am 22.0 20.0 7.0 38 7.7 S 7 11 4 6 1019.1 - 0.0
27/04:00am 20.3 20.2 14.0 67 3.6 S 7 11 4 6 1018.9 - 0.0
27/03:30am 19.0 20.1 16.6 86 1.4 SW 6 7 3 4 1018.9 - 0.0
27/03:00am 19.0 19.8 16.4 85 1.6 SW 7 11 4 6 1019.0 1019.0 0.0
27/02:30am 19.4 20.6 16.8 85 1.6 WSW 6 7 3 4 1019.2 - 0.0
27/02:00am 20.1 20.9 16.3 79 2.3 WSW 7 9 4 5 1019.3 - 0.0
27/01:30am 21.3 23.1 16.5 74 2.9 SSE 2 6 1 3 1019.2 - 0.0
27/01:00am 21.6 23.7 16.3 72 3.2 CALM 0 0 0 0 1019.4 - 0.0
27/12:30am 22.3 24.4 16.3 69 3.6 CALM 0 0 0 0 1019.5 - 0.0
27/12:00am 23.3 24.4 16.6 66 4.1 NE 6 9 3 5 1019.7 1019.7 0.0
 
Date/Time
CST
Temp
°C
App
Temp
°C
Dew
Point
Rel
Hum
%
Delta-T
°C
Wind Press
QNH
hPa
Press
MSL
hPa
Rain
since 9 am
mm
Dir
 
Spd
km/h
Gust
km/h
Spd
kts
Gust
kts
26/11:30pm 24.1 25.2 16.6 63 4.6 ESE 6 13 3 7 1019.9 - 0.0
26/11:00pm 24.5 25.6 17.2 63 4.5 NE 7 13 4 7 1019.6 - 0.0
26/10:30pm 25.0 25.7 17.0 61 5.0 ENE 9 15 5 8 1019.4 - 0.0
26/10:00pm 25.4 26.0 15.7 55 5.9 ENE 7 11 4 6 1019.3 - 0.0
26/09:30pm 26.1 26.1 15.2 51 6.6 NE 9 15 5 8 1019.1 - 0.0
26/09:00pm 26.7 25.9 15.1 49 7.0 NE 13 20 7 11 1018.9 1018.9 0.0

Other Formats:

Comma delimited format used in spreadsheet applications
http://www.bom.gov.au/fwo/IDD60801/IDD60801.94239.axf

JavaScript Object Notation format (JSON) in row-major order
http://www.bom.gov.au/fwo/IDD60801/IDD60801.94239.json